createdAt,value
2023-05-02T00:00:40.994Z,17
2023-05-02T00:01:42.041Z,17
2023-05-02T00:02:43.137Z,17
2023-05-02T00:03:44.072Z,17
2023-05-02T00:04:45.045Z,17
2023-05-02T00:05:45.960Z,17
2023-05-02T00:06:47.048Z,17
2023-05-02T00:07:47.957Z,17
2023-05-02T00:08:48.959Z,17
2023-05-02T00:09:50.835Z,17
2023-05-02T00:10:51.974Z,17
2023-05-02T00:11:53.715Z,17
2023-05-02T00:12:54.995Z,16
2023-05-02T00:13:55.935Z,16
2023-05-02T00:14:57.058Z,17
2023-05-02T00:15:57.992Z,17
2023-05-02T00:16:59.050Z,16
2023-05-02T00:17:59.972Z,16
2023-05-02T00:19:00.981Z,16
2023-05-02T00:20:02.237Z,16
2023-05-02T00:21:02.962Z,15
2023-05-02T00:22:04.016Z,15
2023-05-02T00:23:04.914Z,16
2023-05-02T00:24:05.960Z,17
2023-05-02T00:25:07.015Z,17
2023-05-02T00:26:07.976Z,17
2023-05-02T00:27:09.099Z,17
2023-05-02T00:28:09.955Z,17
2023-05-02T00:29:11.439Z,17
2023-05-02T00:30:13.377Z,16
2023-05-02T00:31:15.107Z,17
2023-05-02T00:32:16.056Z,16
2023-05-02T00:33:16.940Z,17
2023-05-02T00:34:18.035Z,16
2023-05-02T00:35:19.042Z,17
2023-05-02T00:36:19.942Z,16
2023-05-02T00:37:20.975Z,16
2023-05-02T00:38:22.020Z,16
2023-05-02T00:39:22.975Z,16
2023-05-02T00:40:23.991Z,16
2023-05-02T00:41:25.142Z,15
2023-05-02T00:42:26.020Z,15
2023-05-02T00:43:26.966Z,17
2023-05-02T00:44:28.026Z,18
2023-05-02T00:45:29.101Z,17
2023-05-02T00:46:30.088Z,16
2023-05-02T00:47:31.150Z,17
2023-05-02T00:48:31.996Z,15
2023-05-02T00:49:33.016Z,16
2023-05-02T00:50:33.997Z,18
2023-05-02T00:51:35.114Z,16
2023-05-02T00:52:36.043Z,15
2023-05-02T00:53:37.218Z,17
2023-05-02T00:54:37.956Z,16
2023-05-02T00:55:39.102Z,15
2023-05-02T00:56:40.033Z,15
2023-05-02T00:57:40.996Z,16
2023-05-02T00:58:41.959Z,16
2023-05-02T00:59:42.977Z,16
2023-05-02T01:00:43.968Z,16
2023-05-02T01:01:45.119Z,16
2023-05-02T01:02:46.004Z,15
2023-05-02T01:03:47.121Z,15
2023-05-02T01:04:48.046Z,15
2023-05-02T01:05:49.093Z,16
2023-05-02T01:06:50.120Z,16
2023-05-02T01:07:51.034Z,16
2023-05-02T01:08:52.104Z,15
2023-05-02T01:09:53.078Z,15
2023-05-02T01:10:54.073Z,15
2023-05-02T01:11:54.957Z,15
2023-05-02T01:12:55.975Z,15
2023-05-02T01:13:57.706Z,16
2023-05-02T01:14:59.093Z,17
2023-05-02T01:16:00.221Z,17
2023-05-02T01:17:01.013Z,16
2023-05-02T01:18:02.060Z,16
2023-05-02T01:19:03.093Z,16
2023-05-02T01:20:03.991Z,16
2023-05-02T01:21:05.002Z,16
2023-05-02T01:22:05.995Z,16
2023-05-02T01:23:07.011Z,16
2023-05-02T01:24:08.070Z,16
2023-05-02T01:25:09.160Z,15
2023-05-02T01:26:10.076Z,16
2023-05-02T01:27:11.032Z,15
2023-05-02T01:28:12.073Z,16
2023-05-02T01:29:12.992Z,16
2023-05-02T01:30:14.031Z,16
2023-05-02T01:31:15.088Z,17
2023-05-02T01:32:15.979Z,16
2023-05-02T01:33:17.000Z,15
2023-05-02T01:34:17.998Z,16
2023-05-02T01:35:18.990Z,16
2023-05-02T01:36:20.071Z,16
2023-05-02T01:37:21.016Z,16
2023-05-02T01:38:22.033Z,15
2023-05-02T01:39:23.018Z,15
2023-05-02T01:40:24.059Z,16
2023-05-02T01:41:25.092Z,16
2023-05-02T01:42:26.042Z,15
2023-05-02T01:43:26.982Z,16
2023-05-02T01:44:28.044Z,16
2023-05-02T01:45:29.113Z,17
2023-05-02T01:46:30.056Z,17
2023-05-02T01:47:31.173Z,16
2023-05-02T01:48:32.033Z,17
2023-05-02T01:49:33.003Z,17
2023-05-02T01:50:34.030Z,18
2023-05-02T01:51:35.256Z,22
2023-05-02T01:52:35.997Z,31
2023-05-02T01:53:37.039Z,66
2023-05-02T01:54:37.977Z,36
2023-05-02T01:55:39.006Z,39
2023-05-02T01:56:39.998Z,42
2023-05-02T01:57:41.018Z,36
2023-05-02T01:58:42.016Z,38
2023-05-02T01:59:43.117Z,20
2023-05-02T02:00:44.043Z,18
2023-05-02T02:01:45.124Z,18
2023-05-02T02:02:46.018Z,18
2023-05-02T02:03:47.051Z,18
2023-05-02T02:04:48.039Z,27
2023-05-02T02:05:49.045Z,29
2023-05-02T02:06:50.094Z,40
2023-05-02T02:07:50.997Z,26
2023-05-02T02:08:52.112Z,18
2023-05-02T02:09:53.015Z,27
2023-05-02T02:10:54.042Z,34
2023-05-02T02:11:55.117Z,24
2023-05-02T02:12:56.048Z,24
2023-05-02T02:13:57.056Z,26
2023-05-02T02:14:57.996Z,27
2023-05-02T02:15:59.113Z,46
2023-05-02T02:17:00.044Z,36
2023-05-02T02:18:01.122Z,33
2023-05-02T02:19:02.077Z,39
2023-05-02T02:20:03.132Z,25
2023-05-02T02:21:04.056Z,24
2023-05-02T02:22:05.063Z,23
2023-05-02T02:23:06.057Z,19
2023-05-02T02:24:07.060Z,18
2023-05-02T02:25:08.088Z,19
2023-05-02T02:26:09.086Z,18
2023-05-02T02:27:10.017Z,17
2023-05-02T02:28:11.015Z,16
2023-05-02T02:29:12.058Z,17
2023-05-02T02:30:13.104Z,17
2023-05-02T02:31:14.104Z,16
2023-05-02T02:32:15.056Z,17
2023-05-02T02:33:16.039Z,16
2023-05-02T02:34:17.054Z,16
2023-05-02T02:35:18.596Z,17
2023-05-02T02:36:20.155Z,17
2023-05-02T02:37:20.997Z,16
2023-05-02T02:38:22.034Z,16
2023-05-02T02:39:23.033Z,16
2023-05-02T02:40:24.055Z,16
2023-05-02T02:41:25.061Z,17
2023-05-02T02:42:26.096Z,17
2023-05-02T02:43:27.084Z,17
2023-05-02T02:44:28.035Z,17
2023-05-02T02:45:29.154Z,17
2023-05-02T02:46:30.140Z,16
2023-05-02T02:47:31.197Z,16
2023-05-02T02:48:32.034Z,17
2023-05-02T02:49:33.033Z,16
2023-05-02T02:50:33.964Z,16
2023-05-02T02:51:35.094Z,15
2023-05-02T02:52:36.100Z,15
2023-05-02T02:53:37.142Z,15
2023-05-02T02:54:38.116Z,16
2023-05-02T02:55:39.175Z,16
2023-05-02T02:56:40.040Z,16
2023-05-02T02:57:41.015Z,16
2023-05-02T02:58:42.036Z,15
2023-05-02T02:59:43.031Z,16
2023-05-02T03:00:44.074Z,17
2023-05-02T03:01:45.186Z,17
2023-05-02T03:02:46.127Z,17
2023-05-02T03:03:47.095Z,17
2023-05-02T03:04:48.068Z,16
2023-05-02T03:05:49.016Z,17
2023-05-02T03:06:50.092Z,17
2023-05-02T03:07:51.091Z,17
2023-05-02T03:08:52.117Z,17
2023-05-02T03:09:53.103Z,16
2023-05-02T03:10:54.079Z,16
2023-05-02T03:11:55.278Z,16
2023-05-02T03:12:56.204Z,16
2023-05-02T03:13:57.023Z,16
2023-05-02T03:14:58.006Z,15
2023-05-02T03:15:59.224Z,16
2023-05-02T03:17:00.191Z,15
2023-05-02T03:18:01.260Z,16
2023-05-02T03:19:02.078Z,15
2023-05-02T03:20:03.124Z,15
2023-05-02T03:21:04.022Z,15
2023-05-02T03:22:05.052Z,15
2023-05-02T03:23:06.114Z,16
2023-05-02T03:24:07.051Z,15
2023-05-02T03:25:08.061Z,15
2023-05-02T03:26:09.020Z,15
2023-05-02T03:27:10.295Z,15
2023-05-02T03:28:11.135Z,16
2023-05-02T03:29:12.075Z,16
2023-05-02T03:30:13.036Z,15
2023-05-02T03:31:14.134Z,15
2023-05-02T03:32:15.096Z,15
2023-05-02T03:33:16.163Z,14
2023-05-02T03:34:17.095Z,15
2023-05-02T03:35:18.010Z,15
2023-05-02T03:36:19.093Z,15
2023-05-02T03:37:20.077Z,14
2023-05-02T03:38:21.052Z,13
2023-05-02T03:39:22.136Z,13
2023-05-02T03:40:23.139Z,13
2023-05-02T03:41:24.054Z,14
2023-05-02T03:42:25.061Z,14
2023-05-02T03:43:26.055Z,13
2023-05-02T03:44:27.156Z,13
2023-05-02T03:45:28.193Z,14
2023-05-02T03:46:29.099Z,14
2023-05-02T03:47:30.207Z,14
2023-05-02T03:48:31.112Z,14
2023-05-02T03:49:32.156Z,14
2023-05-02T03:50:33.075Z,14
2023-05-02T03:51:34.097Z,14
2023-05-02T03:52:35.133Z,13
2023-05-02T03:53:36.151Z,13
2023-05-02T03:54:37.095Z,14
2023-05-02T03:55:38.092Z,13
2023-05-02T03:56:40.710Z,14
2023-05-02T03:57:40.121Z,14
2023-05-02T03:58:41.076Z,14
2023-05-02T03:59:42.053Z,14
2023-05-02T04:00:43.114Z,14
2023-05-02T04:01:44.155Z,14
2023-05-02T04:02:45.270Z,14
2023-05-02T04:03:46.146Z,14
2023-05-02T04:04:47.559Z,14
2023-05-02T04:05:48.116Z,13
2023-05-02T04:06:49.201Z,13
2023-05-02T04:07:50.086Z,13
2023-05-02T04:08:51.066Z,13
2023-05-02T04:09:52.073Z,14
2023-05-02T04:10:53.081Z,15
2023-05-02T04:11:54.183Z,14
2023-05-02T04:12:55.206Z,13
2023-05-02T04:13:56.221Z,13
2023-05-02T04:14:57.457Z,13
2023-05-02T04:15:59.175Z,13
2023-05-02T04:17:00.420Z,13
2023-05-02T04:18:01.286Z,13
2023-05-02T04:19:02.178Z,13
2023-05-02T04:20:05.182Z,14
2023-05-02T04:21:04.044Z,13
2023-05-02T04:22:05.076Z,13
2023-05-02T04:23:06.094Z,13
2023-05-02T04:24:07.080Z,14
2023-05-02T04:25:08.142Z,14
2023-05-02T04:26:09.093Z,14
2023-05-02T04:27:10.314Z,14
2023-05-02T04:28:11.639Z,14
2023-05-02T04:29:13.236Z,14
2023-05-02T04:30:14.193Z,14
2023-05-02T04:31:16.294Z,15
2023-05-02T04:32:17.055Z,14
2023-05-02T04:33:18.145Z,14
2023-05-02T04:34:19.186Z,14
2023-05-02T04:35:20.864Z,14
2023-05-02T04:36:22.355Z,14
2023-05-02T04:37:23.641Z,14
2023-05-02T04:38:25.379Z,14
2023-05-02T04:39:26.084Z,14
2023-05-02T04:40:27.139Z,15
2023-05-02T04:41:28.100Z,16
2023-05-02T04:42:29.176Z,16
2023-05-02T04:43:30.506Z,16
2023-05-02T04:44:31.177Z,16
2023-05-02T04:45:32.155Z,16
2023-05-02T04:46:33.251Z,15
2023-05-02T04:47:34.216Z,16
2023-05-02T04:48:35.316Z,16
2023-05-02T04:49:36.096Z,16
2023-05-02T04:50:37.618Z,17
2023-05-02T04:51:39.306Z,17
2023-05-02T04:52:40.162Z,17
2023-05-02T04:53:41.237Z,17
2023-05-02T04:54:43.180Z,18
2023-05-02T04:55:44.191Z,18
2023-05-02T04:56:45.151Z,19
2023-05-02T04:57:46.092Z,22
2023-05-02T04:58:47.101Z,22
2023-05-02T04:59:48.200Z,22
2023-05-02T05:00:49.063Z,22
2023-05-02T05:01:50.216Z,22
2023-05-02T05:02:51.259Z,22
2023-05-02T05:03:52.144Z,22
2023-05-02T05:04:53.217Z,22
2023-05-02T05:05:54.157Z,23
2023-05-02T05:06:56.111Z,22
2023-05-02T05:07:57.160Z,20
2023-05-02T05:08:58.122Z,22
2023-05-02T05:09:59.275Z,18
2023-05-02T05:11:00.160Z,20
2023-05-02T05:12:01.138Z,18
2023-05-02T05:13:02.351Z,18
2023-05-02T05:14:03.301Z,18
2023-05-02T05:15:04.174Z,18
2023-05-02T05:16:05.323Z,18
2023-05-02T05:17:06.241Z,19
2023-05-02T05:18:07.222Z,19
2023-05-02T05:19:09.259Z,19
2023-05-02T05:20:10.102Z,19
2023-05-02T05:21:11.234Z,22
2023-05-02T05:22:12.174Z,22
2023-05-02T05:23:13.603Z,22
2023-05-02T05:24:15.683Z,23
2023-05-02T05:25:17.292Z,23
2023-05-02T05:26:18.112Z,23
2023-05-02T05:27:19.061Z,23
2023-05-02T05:28:20.133Z,23
2023-05-02T05:29:23.311Z,24
2023-05-02T05:30:22.516Z,24
2023-05-02T05:31:25.110Z,24
2023-05-02T05:32:26.473Z,23
2023-05-02T05:33:27.178Z,23
2023-05-02T05:34:28.263Z,23
2023-05-02T05:35:29.162Z,23
2023-05-02T05:36:30.221Z,23
2023-05-02T05:37:31.176Z,23
2023-05-02T05:38:32.496Z,22
2023-05-02T05:39:33.116Z,23
2023-05-02T05:40:34.092Z,23
2023-05-02T05:41:35.112Z,22
2023-05-02T05:42:36.635Z,20
2023-05-02T05:43:39.201Z,22
2023-05-02T05:44:40.602Z,22
2023-05-02T05:45:42.314Z,22
2023-05-02T05:46:43.143Z,22
2023-05-02T05:47:44.184Z,19
2023-05-02T05:48:45.212Z,20
2023-05-02T05:49:46.148Z,22
2023-05-02T05:50:47.456Z,22
2023-05-02T05:51:48.191Z,22
2023-05-02T05:52:49.157Z,22
2023-05-02T05:53:50.334Z,22
2023-05-02T05:54:51.271Z,20
2023-05-02T05:55:52.392Z,20
2023-05-02T05:56:53.264Z,20
2023-05-02T05:57:54.182Z,22
2023-05-02T05:58:55.118Z,20
2023-05-02T05:59:56.147Z,20
2023-05-02T06:00:57.498Z,20
2023-05-02T06:01:58.028Z,19
2023-05-02T06:02:59.242Z,19
2023-05-02T06:04:00.334Z,19
2023-05-02T06:05:01.350Z,20
2023-05-02T06:06:02.251Z,20
2023-05-02T06:07:03.117Z,20
2023-05-02T06:08:04.172Z,20
2023-05-02T06:09:05.149Z,20
2023-05-02T06:10:06.138Z,22
2023-05-02T06:11:07.124Z,20
2023-05-02T06:12:08.157Z,20
2023-05-02T06:13:09.080Z,20
2023-05-02T06:14:10.238Z,20
2023-05-02T06:15:11.127Z,22
2023-05-02T06:16:12.239Z,20
2023-05-02T06:17:18.178Z,20
2023-05-02T06:18:19.168Z,20
2023-05-02T06:19:20.543Z,22
2023-05-02T06:20:22.578Z,20
2023-05-02T06:21:24.198Z,20
2023-05-02T06:22:25.176Z,20
2023-05-02T06:23:26.121Z,20
2023-05-02T06:24:27.948Z,20
2023-05-02T06:25:29.186Z,22
2023-05-02T06:26:30.170Z,19
2023-05-02T06:27:32.974Z,20
2023-05-02T06:28:32.522Z,19
2023-05-02T06:29:34.176Z,20
2023-05-02T06:30:35.398Z,19
2023-05-02T06:31:36.308Z,19
2023-05-02T06:32:37.455Z,18
2023-05-02T06:33:38.153Z,19
2023-05-02T06:34:39.297Z,19
2023-05-02T06:35:40.174Z,19
2023-05-02T06:36:41.225Z,19
2023-05-02T06:37:42.146Z,19
2023-05-02T06:38:43.114Z,19
2023-05-02T06:39:44.282Z,19
2023-05-02T06:40:45.224Z,19
2023-05-02T06:41:46.239Z,19
2023-05-02T06:42:47.142Z,20
2023-05-02T06:43:48.210Z,20
2023-05-02T06:44:49.212Z,22
2023-05-02T06:45:50.237Z,22
2023-05-02T06:46:51.108Z,22
2023-05-02T06:47:52.144Z,22
2023-05-02T06:48:53.201Z,20
2023-05-02T06:49:54.420Z,20
2023-05-02T06:50:55.145Z,20
2023-05-02T06:51:56.215Z,20
2023-05-02T06:52:57.213Z,22
2023-05-02T06:53:58.203Z,22
2023-05-02T06:54:59.195Z,22
2023-05-02T06:56:00.192Z,22
2023-05-02T06:57:01.958Z,22
2023-05-02T06:58:03.261Z,20
2023-05-02T06:59:04.198Z,22
2023-05-02T07:00:05.551Z,22
2023-05-02T07:01:06.177Z,20
2023-05-02T07:02:07.488Z,20
2023-05-02T07:03:08.305Z,20
2023-05-02T07:04:09.331Z,20
2023-05-02T07:05:10.319Z,20
2023-05-02T07:06:11.487Z,19
2023-05-02T07:07:13.233Z,19
2023-05-02T07:08:14.170Z,20
2023-05-02T07:09:15.128Z,20
2023-05-02T07:10:16.772Z,20
2023-05-02T07:11:18.186Z,20
2023-05-02T07:12:19.332Z,20
2023-05-02T07:13:20.203Z,20
2023-05-02T07:14:21.173Z,20
2023-05-02T07:15:22.264Z,20
2023-05-02T07:16:23.208Z,20
2023-05-02T07:17:24.263Z,20
2023-05-02T07:18:25.272Z,20
2023-05-02T07:19:26.249Z,22
2023-05-02T07:20:27.232Z,22
2023-05-02T07:21:28.272Z,22
2023-05-02T07:22:29.193Z,20
2023-05-02T07:23:30.196Z,20
2023-05-02T07:24:31.512Z,20
2023-05-02T07:25:32.160Z,20
2023-05-02T07:26:33.140Z,22
2023-05-02T07:27:34.203Z,22
2023-05-02T07:28:35.264Z,20
2023-05-02T07:29:36.223Z,20
2023-05-02T07:30:37.259Z,20
2023-05-02T07:31:39.269Z,22
2023-05-02T07:32:40.331Z,20
2023-05-02T07:33:41.232Z,20
2023-05-02T07:34:42.395Z,20
2023-05-02T07:35:43.174Z,22
2023-05-02T07:36:44.672Z,22
2023-05-02T07:37:46.186Z,22
2023-05-02T07:38:47.229Z,22
2023-05-02T07:39:48.137Z,22
2023-05-02T07:40:49.193Z,22
2023-05-02T07:41:50.155Z,22
2023-05-02T07:42:51.327Z,22
2023-05-02T07:43:52.266Z,22
2023-05-02T07:44:53.415Z,20
2023-05-02T07:45:54.244Z,22
2023-05-02T07:46:55.323Z,22
2023-05-02T07:47:56.241Z,22
2023-05-02T07:48:57.656Z,22
2023-05-02T07:49:59.551Z,23
2023-05-02T07:51:01.026Z,22
2023-05-02T07:52:03.231Z,20
2023-05-02T07:53:04.901Z,20
2023-05-02T07:54:06.296Z,20
2023-05-02T07:55:07.222Z,20
2023-05-02T07:56:09.247Z,22
2023-05-02T07:57:10.247Z,22
2023-05-02T07:58:11.220Z,22
2023-05-02T07:59:12.559Z,22
2023-05-02T08:00:14.451Z,24
2023-05-02T08:01:15.195Z,22
2023-05-02T08:02:16.322Z,22
2023-05-02T08:03:17.343Z,24
2023-05-02T08:04:18.417Z,23
2023-05-02T08:05:19.406Z,23
2023-05-02T08:06:20.264Z,23
2023-05-02T08:07:21.184Z,23
2023-05-02T08:08:24.789Z,23
2023-05-02T08:09:26.213Z,23
2023-05-02T08:10:27.210Z,23
2023-05-02T08:11:28.298Z,23
2023-05-02T08:12:29.302Z,23
2023-05-02T08:13:30.276Z,23
2023-05-02T08:14:31.271Z,23
2023-05-02T08:15:32.247Z,23
2023-05-02T08:16:34.142Z,23
2023-05-02T08:17:35.373Z,23
2023-05-02T08:18:36.218Z,23
2023-05-02T08:19:37.249Z,23
2023-05-02T08:20:38.245Z,23
2023-05-02T08:21:39.176Z,23
2023-05-02T08:22:40.342Z,23
2023-05-02T08:23:41.271Z,23
2023-05-02T08:24:42.261Z,23
2023-05-02T08:25:43.337Z,23
2023-05-02T08:26:44.501Z,23
2023-05-02T08:27:45.298Z,24
2023-05-02T08:28:46.215Z,23
2023-05-02T08:29:47.178Z,23
2023-05-02T08:30:48.198Z,23
2023-05-02T08:31:49.286Z,22
2023-05-02T08:32:50.379Z,22
2023-05-02T08:33:51.313Z,22
2023-05-02T08:34:52.319Z,22
2023-05-02T08:35:53.948Z,23
2023-05-02T08:36:56.838Z,24
2023-05-02T08:37:56.230Z,24
2023-05-02T08:38:57.279Z,23
2023-05-02T08:39:58.543Z,23
2023-05-02T08:40:59.272Z,23
2023-05-02T08:42:00.259Z,23
2023-05-02T08:43:01.285Z,24
2023-05-02T08:44:02.266Z,23
2023-05-02T08:45:03.678Z,23
2023-05-02T08:46:05.274Z,24
2023-05-02T08:47:06.821Z,23
2023-05-02T08:48:08.321Z,23
2023-05-02T08:49:09.296Z,23
2023-05-02T08:50:13.115Z,23
2023-05-02T08:51:14.415Z,22
2023-05-02T08:52:15.510Z,22
2023-05-02T08:53:16.278Z,22
2023-05-02T08:54:17.308Z,24
2023-05-02T08:55:18.723Z,24
2023-05-02T08:56:20.945Z,23
2023-05-02T08:57:22.664Z,23
2023-05-02T08:58:24.360Z,23
2023-05-02T08:59:25.403Z,23
2023-05-02T09:00:26.724Z,23
2023-05-02T09:01:28.393Z,23
2023-05-02T09:02:29.484Z,23
2023-05-02T09:03:30.363Z,22
2023-05-02T09:04:31.239Z,22
2023-05-02T09:05:32.258Z,23
2023-05-02T09:06:33.325Z,23
2023-05-02T09:07:34.288Z,22
2023-05-02T09:08:35.240Z,23
2023-05-02T09:09:36.403Z,23
2023-05-02T09:10:37.193Z,22
2023-05-02T09:11:38.318Z,20
2023-05-02T09:12:39.294Z,20
2023-05-02T09:13:40.215Z,20
2023-05-02T09:14:41.298Z,20
2023-05-02T09:15:42.314Z,22
2023-05-02T09:16:43.564Z,22
2023-05-02T09:17:44.366Z,23
2023-05-02T09:18:45.442Z,23
2023-05-02T09:19:46.253Z,23
2023-05-02T09:20:47.269Z,23
2023-05-02T09:21:48.485Z,23
2023-05-02T09:22:49.256Z,23
2023-05-02T09:23:50.271Z,23
2023-05-02T09:24:51.277Z,23
2023-05-02T09:25:52.296Z,23
2023-05-02T09:26:53.248Z,23
2023-05-02T09:27:54.432Z,24
2023-05-02T09:28:55.333Z,24
2023-05-02T09:29:56.224Z,24
2023-05-02T09:30:57.563Z,23
2023-05-02T09:31:58.238Z,23
2023-05-02T09:32:59.525Z,23
2023-05-02T09:34:00.317Z,23
2023-05-02T09:35:01.540Z,24
2023-05-02T09:36:02.334Z,23
2023-05-02T09:37:03.304Z,24
2023-05-02T09:38:04.320Z,24
2023-05-02T09:39:05.866Z,24
2023-05-02T09:40:07.378Z,23
2023-05-02T09:41:08.325Z,24
2023-05-02T09:42:09.338Z,23
2023-05-02T09:43:10.436Z,22
2023-05-02T09:44:11.339Z,23
2023-05-02T09:45:12.304Z,23
2023-05-02T09:46:13.343Z,23
2023-05-02T09:47:14.381Z,23
2023-05-02T09:48:15.261Z,24
2023-05-02T09:49:16.326Z,23
2023-05-02T09:50:17.358Z,23
2023-05-02T09:51:18.220Z,23
2023-05-02T09:52:19.276Z,23
2023-05-02T09:53:20.359Z,25
2023-05-02T09:54:21.262Z,24
2023-05-02T09:55:22.299Z,25
2023-05-02T09:56:24.799Z,25
2023-05-02T09:57:25.263Z,24
2023-05-02T09:58:26.266Z,24
2023-05-02T09:59:27.241Z,23
2023-05-02T10:00:28.275Z,24
2023-05-02T10:01:29.340Z,24
2023-05-02T10:02:30.851Z,24
2023-05-02T10:03:32.284Z,24
2023-05-02T10:04:33.904Z,23
2023-05-02T10:05:35.330Z,24
2023-05-02T10:06:36.778Z,24
2023-05-02T10:07:38.318Z,23
2023-05-02T10:08:39.294Z,20
2023-05-02T10:09:40.272Z,20
2023-05-02T10:10:42.038Z,20
2023-05-02T10:11:43.321Z,22
2023-05-02T10:12:44.255Z,23
2023-05-02T10:13:45.329Z,24
2023-05-02T10:14:46.331Z,23
2023-05-02T10:15:47.302Z,23
2023-05-02T10:16:48.258Z,23
2023-05-02T10:17:49.386Z,23
2023-05-02T10:18:50.278Z,22
2023-05-02T10:19:51.353Z,23
2023-05-02T10:20:52.294Z,23
2023-05-02T10:21:53.336Z,22
2023-05-02T10:22:54.360Z,23
2023-05-02T10:23:55.338Z,23
2023-05-02T10:24:56.328Z,23
2023-05-02T10:25:58.199Z,22
2023-05-02T10:26:58.318Z,20
2023-05-02T10:27:59.476Z,22
2023-05-02T10:29:00.356Z,20
2023-05-02T10:30:01.530Z,20
2023-05-02T10:31:02.351Z,20
2023-05-02T10:32:03.990Z,20
2023-05-02T10:33:05.799Z,19
2023-05-02T10:34:07.405Z,19
2023-05-02T10:35:08.382Z,19
2023-05-02T10:36:09.375Z,20
2023-05-02T10:37:10.477Z,20
2023-05-02T10:38:11.396Z,20
2023-05-02T10:39:12.334Z,22
2023-05-02T10:40:13.334Z,22
2023-05-02T10:41:14.293Z,20
2023-05-02T10:42:15.882Z,24
2023-05-02T10:43:17.349Z,23
2023-05-02T10:44:18.302Z,23
2023-05-02T10:45:19.459Z,23
2023-05-02T10:46:21.644Z,24
2023-05-02T10:47:23.542Z,28
2023-05-02T10:48:25.531Z,26
2023-05-02T10:49:26.353Z,24
2023-05-02T10:50:28.173Z,23
2023-05-02T10:51:28.745Z,24
2023-05-02T10:52:30.557Z,25
2023-05-02T10:53:31.789Z,26
2023-05-02T10:54:33.460Z,25
2023-05-02T10:55:34.632Z,24
2023-05-02T10:56:36.591Z,24
2023-05-02T10:57:37.411Z,25
2023-05-02T10:58:38.297Z,24
2023-05-02T10:59:39.364Z,24
2023-05-02T11:00:40.408Z,25
2023-05-02T11:01:41.414Z,24
2023-05-02T11:02:43.926Z,24
2023-05-02T11:03:45.509Z,23
2023-05-02T11:04:47.884Z,23
2023-05-02T11:05:49.657Z,23
2023-05-02T11:06:51.775Z,23
2023-05-02T11:07:53.746Z,25
2023-05-02T11:08:55.328Z,25
2023-05-02T11:09:57.041Z,25
2023-05-02T11:10:58.374Z,25
2023-05-02T11:11:59.493Z,24
2023-05-02T11:13:00.575Z,25
2023-05-02T11:14:01.416Z,26
2023-05-02T11:15:02.726Z,25
2023-05-02T11:16:03.438Z,26
2023-05-02T11:17:04.919Z,25
2023-05-02T11:18:06.577Z,24
2023-05-02T11:19:08.439Z,25
2023-05-02T11:20:10.046Z,24
2023-05-02T11:21:11.507Z,24
2023-05-02T11:22:12.340Z,23
2023-05-02T11:23:13.403Z,24
2023-05-02T11:24:14.439Z,24
2023-05-02T11:25:16.775Z,23
2023-05-02T11:26:18.438Z,24
2023-05-02T11:27:19.364Z,24
2023-05-02T11:28:20.456Z,24
2023-05-02T11:29:21.475Z,25
2023-05-02T11:30:22.474Z,24
2023-05-02T11:31:23.374Z,23
2023-05-02T11:32:24.787Z,23
2023-05-02T11:33:26.551Z,23
2023-05-02T11:34:27.732Z,23
2023-05-02T11:35:30.054Z,24
2023-05-02T11:36:31.512Z,24
2023-05-02T11:37:32.499Z,24
2023-05-02T11:38:33.537Z,25
2023-05-02T11:39:34.358Z,24
2023-05-02T11:40:35.454Z,24
2023-05-02T11:41:36.553Z,24
2023-05-02T11:42:40.642Z,23
2023-05-02T11:43:42.505Z,23
2023-05-02T11:44:43.496Z,24
2023-05-02T11:45:44.353Z,25
2023-05-02T11:46:45.485Z,25
2023-05-02T11:47:47.181Z,24
2023-05-02T11:48:48.406Z,24
2023-05-02T11:49:49.396Z,25
2023-05-02T11:50:50.866Z,24
2023-05-02T11:51:51.421Z,24
2023-05-02T11:52:52.464Z,23
2023-05-02T11:53:53.363Z,24
2023-05-02T11:54:54.655Z,26
2023-05-02T11:55:55.407Z,25
2023-05-02T11:56:56.284Z,26
2023-05-02T11:57:57.397Z,25
2023-05-02T11:58:58.395Z,25
2023-05-02T11:59:59.344Z,25
2023-05-02T12:01:00.405Z,26
2023-05-02T12:02:01.358Z,26
2023-05-02T12:03:02.544Z,25
2023-05-02T12:04:03.571Z,26
2023-05-02T12:05:04.782Z,26
2023-05-02T12:06:05.697Z,26
2023-05-02T12:07:08.513Z,26
2023-05-02T12:08:08.637Z,26
2023-05-02T12:09:10.864Z,25
2023-05-02T12:10:12.456Z,26
2023-05-02T12:11:14.476Z,26
2023-05-02T12:12:16.403Z,25
2023-05-02T12:13:17.440Z,25
2023-05-02T12:14:18.565Z,26
2023-05-02T12:15:19.586Z,27
2023-05-02T12:16:21.025Z,25
2023-05-02T12:17:22.732Z,25
2023-05-02T12:18:24.566Z,25
2023-05-02T12:19:27.981Z,25
2023-05-02T12:20:29.447Z,25
2023-05-02T12:21:30.477Z,24
2023-05-02T12:22:31.490Z,25
2023-05-02T12:23:32.421Z,25
2023-05-02T12:24:33.437Z,25
2023-05-02T12:25:34.556Z,25
2023-05-02T12:26:35.626Z,24
2023-05-02T12:27:36.576Z,27
2023-05-02T12:28:37.473Z,25
2023-05-02T12:29:38.881Z,24
2023-05-02T12:30:40.476Z,26
2023-05-02T12:31:41.615Z,25
2023-05-02T12:32:42.537Z,24
2023-05-02T12:33:43.399Z,25
2023-05-02T12:34:45.876Z,23
2023-05-02T12:35:47.680Z,22
2023-05-02T12:36:49.410Z,24
2023-05-02T12:37:51.129Z,22
2023-05-02T12:38:52.438Z,19
2023-05-02T12:39:53.935Z,22
2023-05-02T12:40:55.418Z,20
2023-05-02T12:41:56.447Z,19
2023-05-02T12:42:57.454Z,19
2023-05-02T12:43:58.397Z,19
2023-05-02T12:44:59.443Z,20
2023-05-02T12:46:01.140Z,23
2023-05-02T12:47:02.666Z,22
2023-05-02T12:48:03.914Z,20
2023-05-02T12:49:07.046Z,20
2023-05-02T12:50:09.981Z,19
2023-05-02T12:51:11.634Z,20
2023-05-02T12:52:12.536Z,18
2023-05-02T12:53:14.184Z,19
2023-05-02T12:54:15.426Z,19
2023-05-02T12:55:16.415Z,19
2023-05-02T12:56:17.393Z,19
2023-05-02T12:57:18.479Z,19
2023-05-02T12:58:19.542Z,19
2023-05-02T12:59:20.460Z,19
2023-05-02T13:00:21.375Z,20
2023-05-02T13:01:22.442Z,20
2023-05-02T13:02:23.373Z,20
2023-05-02T13:03:24.543Z,20
2023-05-02T13:04:25.517Z,20
2023-05-02T13:05:26.561Z,22
2023-05-02T13:06:27.912Z,20
2023-05-02T13:07:29.580Z,22
2023-05-02T13:08:30.484Z,20
2023-05-02T13:09:31.388Z,20
2023-05-02T13:10:33.407Z,20
2023-05-02T13:11:34.541Z,20
2023-05-02T13:12:35.474Z,19
2023-05-02T13:13:36.760Z,19
2023-05-02T13:14:38.583Z,20
2023-05-02T13:15:39.474Z,20
2023-05-02T13:16:40.706Z,20
2023-05-02T13:17:41.594Z,22
2023-05-02T13:18:43.129Z,22
2023-05-02T13:19:47.646Z,22
2023-05-02T13:20:45.477Z,22
2023-05-02T13:21:46.632Z,23
2023-05-02T13:22:47.703Z,23
2023-05-02T13:23:51.735Z,24
2023-05-02T13:24:53.797Z,26
2023-05-02T13:25:55.619Z,25
2023-05-02T13:26:56.784Z,25
2023-05-02T13:27:58.636Z,26
2023-05-02T13:29:00.524Z,26
2023-05-02T13:30:02.709Z,27
2023-05-02T13:31:02.666Z,26
2023-05-02T13:32:03.793Z,26
2023-05-02T13:33:05.598Z,27
2023-05-02T13:34:06.391Z,26
2023-05-02T13:35:07.456Z,25
2023-05-02T13:36:08.519Z,24
2023-05-02T13:37:09.459Z,23
2023-05-02T13:38:11.125Z,24
2023-05-02T13:39:12.537Z,24
2023-05-02T13:40:13.551Z,23
2023-05-02T13:41:14.552Z,23
2023-05-02T13:42:23.737Z,23
2023-05-02T13:43:33.494Z,23
2023-05-02T13:44:34.555Z,23
2023-05-02T13:45:35.413Z,23
2023-05-02T13:46:37.134Z,23
2023-05-02T13:47:40.149Z,23
2023-05-02T13:48:41.799Z,24
2023-05-02T13:49:43.538Z,24
2023-05-02T13:50:45.448Z,23
2023-05-02T13:51:46.453Z,23
2023-05-02T13:52:48.984Z,23
2023-05-02T13:53:49.502Z,24
2023-05-02T13:54:50.736Z,23
2023-05-02T13:55:52.537Z,24
2023-05-02T13:56:53.798Z,23
2023-05-02T13:57:56.113Z,24
2023-05-02T13:58:57.806Z,23
2023-05-02T13:59:59.965Z,23
2023-05-02T14:01:00.446Z,24
2023-05-02T14:02:01.457Z,23
2023-05-02T14:03:02.628Z,23
2023-05-02T14:04:03.600Z,22
2023-05-02T14:05:04.587Z,22
2023-05-02T14:06:05.580Z,22
2023-05-02T14:07:06.519Z,23
2023-05-02T14:08:07.492Z,22
2023-05-02T14:09:11.381Z,23
2023-05-02T14:10:12.883Z,23
2023-05-02T14:11:14.459Z,23
2023-05-02T14:12:15.435Z,23
2023-05-02T14:13:16.640Z,24
2023-05-02T14:14:17.748Z,24
2023-05-02T14:15:19.614Z,24
2023-05-02T14:16:20.970Z,24
2023-05-02T14:17:22.533Z,24
2023-05-02T14:18:23.430Z,24
2023-05-02T14:19:24.422Z,26
2023-05-02T14:20:25.461Z,25
2023-05-02T14:21:26.457Z,25
2023-05-02T14:22:27.516Z,24
2023-05-02T14:23:28.472Z,24
2023-05-02T14:24:30.177Z,23
2023-05-02T14:25:31.468Z,24
2023-05-02T14:26:32.460Z,24
2023-05-02T14:27:33.472Z,24
2023-05-02T14:28:34.996Z,24
2023-05-02T14:29:37.014Z,24
2023-05-02T14:30:38.675Z,24
2023-05-02T14:31:39.603Z,26
2023-05-02T14:32:40.538Z,25